Latest Weather Observations for Ngayawili (Elcho Island)

IDD60801

Issued at 9:11 pm CST Monday 6 February 2023 (issued every 10 minutes, with the page automatically refreshed every 10 minutes)

About weather observations | Map of weather stations | Latest weather observations for NT | Other Formats
Station Details ID: 014517 Name: NGAYAWILI Lat: -12.00 Lon: 135.57 Height: 8.1 m
Data from the previous 72 hours. | See also: Recent months at Ngayawili (Elcho Island)
Date/Time
CST
Temp
°C
App
Temp
°C
Dew
Point
°C
Rel
Hum
%
Delta-T
°C
Wind Press
QNH
hPa
Press
MSL
hPa
Rain since
9am
mm
Dir  Spd
km/h
Gust
km/h
Spd
kts
Gust
kts
06/09:00pm 27.1 32.2 24.9 88 1.5 ENE 7 9 4 5 1006.1 1006.0 0.0
06/08:30pm 27.4 32.4 24.8 86 1.8 NE 7 7 4 4 1005.8 1005.7 0.0
06/08:00pm 27.7 32.4 24.9 85 2.0 ENE 9 9 5 5 1005.7 1005.6 0.0
06/07:30pm 29.3 34.4 24.6 76 3.3 N 6 11 3 6 1005.5 1005.4 0.0
06/07:00pm 29.4 33.7 24.3 74 3.5 NNW 9 11 5 6 1005.2 1005.1 0.0
06/06:30pm 29.7 33.8 23.9 71 4.0 NNW 9 11 5 6 1004.8 1004.7 0.0
06/06:00pm 30.1 34.4 24.3 71 4.1 NW 9 13 5 7 1004.7 1004.6 0.0
06/05:30pm 30.5 34.2 24.6 70 4.1 NW 13 15 7 8 1004.5 1004.4 0.0
06/05:00pm 30.8 34.3 24.9 71 4.1 NW 15 17 8 9 1004.2 1004.1 0.0
06/04:30pm 31.2 35.4 25.3 71 4.2 NW 13 17 7 9 1004.2 1004.1 0.0
06/04:00pm 31.0 34.9 24.9 70 4.3 NW 13 15 7 8 1004.3 1004.2 0.0
06/03:30pm 31.4 35.6 26.0 73 3.9 NW 15 17 8 9 1004.5 1004.4 0.0
06/03:00pm 31.0 34.9 24.9 70 4.3 NNW 13 15 7 8 1004.7 1004.6 0.0
06/02:30pm 30.7 34.7 25.1 72 4.0 NNW 13 17 7 9 1004.9 1004.8 0.0
06/02:00pm 30.1 33.1 24.7 73 3.8 NNW 17 20 9 11 1005.4 1005.3 0.0
06/01:30pm 30.5 34.9 25.6 75 3.5 NNW 13 17 7 9 1005.6 1005.5 0.0
06/01:00pm 30.1 34.2 25.2 75 3.5 NNW 13 15 7 8 1005.9 1005.8 0.0
06/12:30pm 29.5 34.1 25.3 78 3.0 NNW 11 13 6 7 1006.1 1006.0 0.0
06/12:00pm 29.7 34.6 25.2 77 3.2 NW 9 11 5 6 1006.5 1006.4 0.0
06/11:30am 30.0 34.4 25.1 75 3.5 WNW 11 13 6 7 1006.8 1006.7 0.0
06/11:00am 29.8 35.2 25.5 78 3.0 NW 7 11 4 6 1007.1 1007.0 0.0
06/10:30am 29.4 34.4 25.4 79 2.8 WNW 9 13 5 7 1007.3 1007.2 0.0
06/10:00am 29.8 35.7 25.3 77 3.2 WNW 4 9 2 5 1007.3 1007.2 0.0
06/09:30am 29.1 33.9 24.2 75 3.4 E 6 11 3 6 1007.6 1007.5 0.0
06/09:00am 28.6 34.2 24.8 80 2.7 SE 4 11 2 6 1007.5 1007.4 0.0
06/08:30am 27.4 32.3 24.7 85 1.9 SSE 7 11 4 6 1007.4 1007.3 0.0
06/08:00am 26.6 31.7 25.0 91 1.1 SSE 7 9 4 5 1007.1 1007.0 0.0
06/07:30am 25.8 32.2 24.9 95 0.6 CALM 0 0 0 0 1006.7 1006.6 0.0
06/07:00am 25.2 30.3 24.7 97 0.3 SSE 6 9 3 5 1006.3 1006.2 0.0
06/06:30am 24.7 29.0 24.2 97 0.3 SSE 9 9 5 5 1005.8 1005.7 0.0
06/06:00am 24.7 29.2 24.0 96 0.5 SE 7 9 4 5 1005.5 1005.4 0.0
06/05:30am 24.7 29.2 24.0 96 0.5 SE 7 9 4 5 1005.4 1005.3 0.0
06/05:00am 24.9 29.4 24.0 95 0.6 E 7 9 4 5 1005.2 1005.1 0.0
06/04:30am 24.8 29.3 23.9 95 0.6 SE 7 9 4 5 1005.1 1005.0 0.0
06/04:00am 24.8 29.3 23.9 95 0.6 SSE 7 9 4 5 1005.1 1005.0 0.0
06/03:30am 24.8 28.9 23.9 95 0.6 SSE 9 11 5 6 1005.0 1004.9 0.0
06/03:00am 25.1 29.6 23.9 93 0.8 ESE 7 9 4 5 1004.8 1004.7 0.0
06/02:30am 25.2 29.5 23.6 91 1.1 E 7 9 4 5 1005.0 1004.9 0.0
06/02:00am 25.6 30.1 23.7 89 1.3 E 6 9 3 5 1005.4 1005.3 0.0
06/01:30am 26.1 30.0 23.6 86 1.7 ENE 9 11 5 6 1005.7 1005.6 0.0
06/01:00am 26.3 30.4 24.0 87 1.6 ENE 9 15 5 8 1006.1 1006.0 0.0
06/12:30am 27.0 30.3 24.5 86 1.7 NE 15 20 8 11 1006.5 1006.4 0.0
06/12:00am 26.8 30.1 22.6 78 2.8 ESE 9 11 5 6 1006.5 1006.4 0.0
 
Date/Time
CST
Temp
°C
App
Temp
°C
Dew
Point
°C
Rel
Hum
%
Delta-T
°C
Wind Press
QNH
hPa
Press
MSL
hPa
Rain since
9am
mm
Dir  Spd
km/h
Gust
km/h
Spd
kts
Gust
kts
05/11:30pm 27.5 31.0 22.9 76 3.1 E 9 13 5 7 1006.9 1006.8 0.0
05/11:00pm 27.6 31.3 23.2 77 3.0 E 9 13 5 7 1007.2 1007.1 0.0
05/10:30pm 27.6 31.7 24.0 81 2.5 E 9 13 5 7 1007.0 1006.9 0.0
05/10:00pm 27.9 32.1 24.1 80 2.6 ENE 9 13 5 7 1006.7 1006.6 0.0
05/09:30pm 27.9 31.7 23.5 77 3.0 ENE 9 13 5 7 1006.5 1006.4 0.0
05/09:00pm 27.7 31.3 23.1 76 3.1 ENE 9 13 5 7 1006.2 1006.1 0.0
05/08:30pm 27.8 31.1 22.5 73 3.6 ENE 9 13 5 7 1005.9 1005.8 0.0
05/08:00pm 27.7 32.0 23.7 79 2.7 E 7 11 4 6 1005.7 1005.6 0.0
05/07:30pm 28.4 32.5 24.0 77 3.0 NE 9 15 5 8 1005.5 1005.4 0.0
05/07:00pm 28.9 33.3 24.5 77 3.1 NE 9 13 5 7 1005.2 1005.1 0.0
05/06:30pm 29.6 33.0 24.0 72 3.9 NE 13 19 7 10 1004.7 1004.6 0.0
05/06:00pm 30.2 33.0 23.6 67 4.6 NE 15 24 8 13 1004.2 1004.1 0.0
05/05:30pm 30.8 33.1 23.5 65 5.1 NNE 17 22 9 12 1004.1 1004.0 0.0
05/05:00pm 31.0 34.2 24.4 68 4.6 NE 15 24 8 13 1004.1 1004.0 0.0
05/04:30pm 31.3 33.7 22.9 61 5.8 NNE 15 22 8 12 1004.0 1003.9 0.0
05/04:00pm 31.0 33.0 23.9 66 4.9 N 20 26 11 14 1004.0 1003.9 0.0
05/03:30pm 31.2 33.3 25.3 71 4.2 N 24 28 13 15 1004.1 1004.0 0.0
05/03:00pm 31.2 33.8 25.5 71 4.0 N 22 26 12 14 1004.1 1004.0 0.0
05/02:30pm 30.3 34.0 25.1 73 3.7 NNW 15 20 8 11 1004.5 1004.4 0.0
05/02:00pm 30.3 34.4 25.8 77 3.2 NNW 15 19 8 10 1004.8 1004.7 0.0
05/01:30pm 30.4 34.2 25.9 77 3.2 NNW 17 20 9 11 1005.0 1004.9 0.0
05/01:00pm 30.5 34.9 26.2 78 3.1 NNW 15 17 8 9 1005.3 1005.2 0.0
05/12:30pm 29.7 33.3 24.3 73 3.8 NNW 13 17 7 9 1005.6 1005.5 0.0
05/12:00pm 30.6 34.4 25.9 76 3.3 NNW 17 20 9 11 1005.8 1005.7 0.0
05/11:30am 30.2 33.8 24.4 71 4.1 N 13 17 7 9 1006.0 1005.9 0.0
05/11:00am 29.2 34.3 25.0 78 2.9 NNW 7 11 4 6 1006.3 1006.2 0.0
05/10:30am 29.6 34.8 25.1 77 3.2 NW 7 11 4 6 1006.7 1006.6 0.0
05/10:00am 29.7 35.4 25.9 80 2.7 NW 7 9 4 5 1007.1 1007.0 0.0
05/09:30am 29.5 35.1 25.5 79 2.8 NW 6 7 3 4 1007.1 1007.0 0.0
05/09:00am 28.9 34.2 24.9 79 2.8 NNW 6 9 3 5 1007.1 1007.0 14.4
05/08:30am 28.4 33.0 24.2 78 2.9 NNW 7 9 4 5 1006.9 1006.8 14.4
05/08:00am 27.0 33.2 25.2 90 1.3 ENE 2 9 1 5 1006.7 1006.6 14.4
05/07:30am 26.7 33.0 26.0 96 0.5 ESE 4 6 2 3 1006.6 1006.5 14.4
05/07:00am 25.7 30.7 24.8 95 0.6 SE 7 7 4 4 1006.4 1006.3 14.4
05/06:30am 26.7 31.5 24.2 86 1.7 NNW 6 11 3 6 1006.1 1006.0 14.4
05/06:00am 27.5 31.3 24.1 82 2.4 N 11 13 6 7 1006.0 1005.9 14.4
05/05:30am 26.1 31.4 25.2 95 0.6 N 7 13 4 7 1005.7 1005.6 14.4
05/05:00am 25.5 30.4 24.6 95 0.6 NE 7 9 4 5 1005.6 1005.5 14.4
05/04:30am 25.6 30.5 24.7 95 0.6 ENE 7 9 4 5 1005.4 1005.3 14.4
05/04:00am 25.9 31.2 25.0 95 0.6 NE 6 9 3 5 1005.3 1005.2 14.4
05/03:30am 25.7 30.8 25.0 96 0.5 NE 7 9 4 5 1005.2 1005.1 14.4
05/03:00am 26.1 31.2 24.7 92 1.0 NNE 6 9 3 5 1005.0 1004.9 14.4
05/02:30am 27.5 31.8 24.9 86 1.8 N 11 13 6 7 1005.2 1005.1 14.4
05/02:00am 26.7 31.5 24.5 88 1.5 N 7 9 4 5 1005.3 1005.2 14.4
05/01:30am 27.1 31.4 24.9 88 1.5 N 11 13 6 7 1005.7 1005.6 14.4
05/01:00am 25.1 29.9 24.4 96 0.5 NNE 7 9 4 5 1006.1 1006.0 14.4
05/12:30am 24.7 29.2 24.0 96 0.5 NE 7 9 4 5 1006.4 1006.3 14.4
05/12:00am 24.9 29.0 24.0 95 0.6 NE 9 11 5 6 1006.8 1006.7 14.4
 
Date/Time
CST
Temp
°C
App
Temp
°C
Dew
Point
°C
Rel
Hum
%
Delta-T
°C
Wind Press
QNH
hPa
Press
MSL
hPa
Rain since
9am
mm
Dir  Spd
km/h
Gust
km/h
Spd
kts
Gust
kts
04/11:30pm 24.6 29.1 23.9 96 0.5 NE 7 9 4 5 1007.1 1007.0 14.4
04/11:00pm 24.7 29.1 23.8 95 0.6 ESE 7 9 4 5 1007.3 1007.2 14.4
04/10:30pm 24.7 28.7 23.8 95 0.6 ESE 9 9 5 5 1007.4 1007.3 14.4
04/10:00pm 24.9 29.0 24.0 95 0.6 ESE 9 11 5 6 1007.3 1007.2 14.4
04/09:30pm 25.4 30.0 24.2 93 0.8 SE 7 11 4 6 1006.9 1006.8 14.4
04/09:00pm 25.8 29.4 23.8 89 1.4 ENE 11 13 6 7 1006.7 1006.6 14.4
04/08:30pm 26.0 29.4 24.0 89 1.4 NE 13 15 7 8 1006.5 1006.4 14.4
04/08:00pm 26.0 31.2 24.8 93 0.8 SSE 6 9 3 5 1006.3 1006.2 14.4
04/07:30pm 26.2 29.4 25.0 93 0.8 NE 17 22 9 12 1005.4 1005.3 14.4
04/07:00pm 26.8 28.6 24.3 86 1.7 N 22 28 12 15 1004.9 1004.8 14.4
04/06:30pm 24.9 28.7 23.5 92 1.0 NE 9 11 5 6 1004.8 1004.7 14.4
04/06:00pm 24.3 27.2 23.1 93 0.8 ENE 13 19 7 10 1004.7 1004.6 14.4
04/05:30pm 22.9 23.7 21.7 93 0.8 SSE 20 28 11 15 1004.9 1004.8 11.8
04/05:00pm 24.2 24.5 23.0 93 0.8 S 26 39 14 21 1004.5 1004.4 2.0
04/04:58pm 24.3 24.3 23.1 93 0.8 S 28 39 15 21 1004.5 1004.4 1.4
04/04:30pm 27.4 31.8 23.8 81 2.5 E 7 11 4 6 1004.0 1003.9 0.0
04/04:00pm 27.5 31.0 22.9 76 3.1 E 9 13 5 7 1004.1 1004.0 0.0
04/03:30pm 29.9 34.4 25.2 76 3.3 NW 11 15 6 8 1003.8 1003.7 0.0
04/03:00pm 30.4 33.9 25.5 75 3.5 NW 17 20 9 11 1003.7 1003.6 0.0
04/02:30pm 30.4 33.8 26.1 78 3.1 NW 20 22 11 12 1004.1 1004.0 0.0
04/02:00pm 30.0 32.2 25.5 77 3.2 NW 24 28 13 15 1004.3 1004.2 0.0
04/01:30pm 29.9 32.2 25.0 75 3.5 NW 22 26 12 14 1004.4 1004.3 0.0
04/01:00pm 29.5 31.8 24.4 74 3.6 WNW 20 24 11 13 1004.8 1004.7 0.0
04/12:30pm 29.2 30.6 22.9 69 4.3 W 20 24 11 13 1005.0 1004.9 0.0
04/12:00pm 29.1 31.1 24.0 74 3.5 W 20 26 11 14 1005.4 1005.3 0.0
04/11:30am 29.1 31.3 24.2 75 3.4 WNW 20 24 11 13 1005.9 1005.8 0.0
04/11:00am 29.6 32.5 25.4 78 3.0 W 20 24 11 13 1006.2 1006.1 0.0
04/10:30am 29.1 30.9 25.5 81 2.5 W 26 30 14 16 1006.4 1006.3 0.0
04/10:00am 28.8 30.8 25.2 81 2.5 WSW 24 28 13 15 1006.4 1006.3 0.0
04/09:30am 28.3 30.6 25.7 86 1.8 NW 24 28 13 15 1006.2 1006.1 0.0
04/09:00am 28.5 31.6 25.7 85 2.0 NW 20 26 11 14 1006.1 1006.0 57.2
04/08:30am 28.1 30.7 25.5 86 1.8 NW 22 28 12 15 1006.0 1005.9 57.2
04/08:00am 27.6 29.0 25.4 88 1.5 NW 28 33 15 18 1005.9 1005.8 57.2
04/07:30am 28.2 31.4 25.6 86 1.8 WNW 19 35 10 19 1005.4 1005.3 57.2
04/07:00am 27.7 31.0 25.1 86 1.8 WNW 17 20 9 11 1005.0 1004.9 57.2
04/06:30am 27.2 29.9 24.8 87 1.7 NW 19 28 10 15 1004.4 1004.3 57.2
04/06:00am 27.2 29.6 24.3 84 2.0 NNW 19 20 10 11 1004.2 1004.1 56.4
04/05:30am 26.5 30.0 24.2 87 1.6 NNE 13 19 7 10 1004.2 1004.1 56.4
04/05:00am 26.8 29.2 24.3 86 1.7 N 19 22 10 12 1004.2 1004.1 56.4
04/04:30am 26.4 28.4 24.6 90 1.3 N 22 32 12 17 1004.0 1003.9 56.2
04/04:00am 26.6 30.0 24.1 86 1.7 N 13 17 7 9 1004.1 1004.0 46.2
04/03:30am 26.9 27.7 25.1 90 1.3 NNW 30 35 16 19 1003.7 1003.6 45.4
04/03:00am 28.4 31.6 26.4 89 1.4 SW 22 26 12 14 1003.3 1003.2 45.4
04/02:30am 25.5 30.0 23.7 90 1.2 S 6 11 3 6 1003.2 1003.1 45.4
04/02:05am 25.5 29.6 23.2 87 1.6 ENE 7 11 4 6 1003.5 1003.4 45.2
04/02:00am 25.5 29.1 23.0 86 1.7 NE 9 15 5 8 1003.4 1003.3 45.2
04/01:44am 26.1 29.6 22.8 82 2.2 W 9 20 5 11 1003.7 1003.6 45.2
04/01:30am 25.5 26.2 23.0 86 1.7 SW 24 46 13 25 1004.0 1003.9 43.0
04/01:27am 25.2 28.3 23.6 91 1.1 SW 13 43 7 23 1004.0 1003.9 41.2
04/01:00am 24.6 28.5 23.0 91 1.1 WSW 7 15 4 8 1004.3 1004.2 38.0
04/12:30am 24.7 27.4 22.9 90 1.2 W 13 19 7 10 1004.2 1004.1 38.0
04/12:24am 24.3 25.4 22.4 89 1.3 WSW 20 35 11 19 1004.6 1004.5 37.6
04/12:01am 24.3 22.5 21.6 85 1.8 WSW 33 50 18 27 1005.5 1005.4 26.0
04/12:00am 24.4 22.6 21.5 84 1.9 WSW 33 50 18 27 1005.5 1005.4 25.2
 
Date/Time
CST
Temp
°C
App
Temp
°C
Dew
Point
°C
Rel
Hum
%
Delta-T
°C
Wind Press
QNH
hPa
Press
MSL
hPa
Rain since
9am
mm
Dir  Spd
km/h
Gust
km/h
Spd
kts
Gust
kts
03/11:58pm 24.8 22.9 20.9 79 2.6 WSW 32 50 17 27 1005.5 1005.4 22.6
03/11:56pm 25.6 26.0 23.8 90 1.2 WSW 28 50 15 27 1005.3 1005.2 20.4
03/11:52pm 25.6 26.4 22.5 83 2.1 WSW 22 39 12 21 1005.1 1005.0 18.6
03/11:30pm 26.3 30.5 25.3 94 0.7 NW 13 19 7 10 1005.4 1005.3 12.2
03/11:00pm 26.7 29.6 25.1 91 1.1 NNW 19 24 10 13 1005.3 1005.2 8.4
03/10:30pm 26.5 30.9 25.6 95 0.6 WNW 13 32 7 17 1004.9 1004.8 6.0
03/10:00pm 25.4 31.5 24.5 95 0.6 CALM 0 0 0 0 1004.6 1004.5 5.2
03/09:30pm 25.2 29.5 24.2 94 0.7 ESE 9 13 5 7 1004.4 1004.3 4.8
03/09:14pm 25.4 28.5 23.5 89 1.3 ESE 13 19 7 10 1004.3 1004.2 3.2

Other formats

Comma delimited format used in spreadsheet applications
http://www.bom.gov.au/fwo/IDD60801/IDD60801.95146.axf

JavaScript Object Notation format (JSON) in row-major order
http://www.bom.gov.au/fwo/IDD60801/IDD60801.95146.json

Data quality

Most of these data are generated automatically and are frequently updated. Quality checks on data are not normally performed. It is possible for incorrect values to appear. Refer to information at About Latest Weather Observations and please check the disclaimer before using these data.